首页
METAR-TAF:

METAR-TAF

机场 :

Maple Lake Municipal Airport

Maple Lake, 明尼蘇達州, 美国

纬度: 45-14-10N, 经度: 093-59-08W, 海拔: 313米

当前天气观测

该预报发布于22分钟前的08:55 UTC
风速9节,风向
温度 -13°C
湿度 72%
气压 1023 hPa
能見度: 16.1公里

METAR: KMGG 120855Z AUTO 08009KT 10SM M13/M17 A3020 RMK AO2 T11271166

时间: 03:17 (09:17 UTC)


TAF: 丢失

超过4000个机场的气象观测和天气预报(METAR&TAF报告)。

可查询的气象台以黄色和红色小点在地图上表示。

将鼠标移到小点上方,可查看气象台名称。

然后点击查看天气观测和预报。

如需切换地图:点击带黑十字的绿色按钮放大地图;点击带横线的绿色按钮缩小地图;或者点击绿色箭头查看邻近地区的地图。


METAR-TAF: